CheckWX is a tool to help pilots better visualize weather data.  It is not intended as a substitute for an official pre-flight weather briefing.

16:27:02 UTC

EPKT TAF
Katowice International Airport
Katowice, Poland
TAF EPKT 281730Z 2818/2918 34011KT CAVOK PROB40 TEMPO 2818/2819 36015G25KT SHRA BKN033CB BECMG 2900/2903 BKN009 BECMG 2906/2909 SCT020 TEMPO 2909/2916 36015G26KT

May-28@
18:00 UTC

May-28 @ 18:00 UTC

May-29@
00:00 UTC

May-29 @ 00:00 UTC

TAF EPKT 281730Z 2818/2918 34011KT CAVOK

Expired

Wind
  • 340° at 11 KTS
Conditions
No significant weather
Cloud Levels
  • No significant clouds

May-28@
18:00 UTC

May-28 @ 18:00 UTC

May-28@
19:00 UTC

May-28 @ 19:00 UTC

PROB40 TEMPO 2818/2819 36015G25KT SHRA BKN033CB

Expired

Wind
  • 360° at 15 KTS
  • {Gusting to 25 KTS
Conditions
Showers, Rain
Cloud Levels
  • Broken at 3,300' AGL

May-29@
00:00 UTC

May-29 @ 00:00 UTC

May-29@
06:00 UTC

May-29 @ 06:00 UTC

BECMG 2900/2903 BKN009

Expired

Wind
  • 340° at 11 KTS
Conditions
No significant weather
Cloud Levels
  • Broken at 900' AGL

May-29@
06:00 UTC

May-29 @ 06:00 UTC

May-29@
18:00 UTC

May-29 @ 18:00 UTC

BECMG 2906/2909 SCT020

Becoming

Becoming Conditions expected by Fri, May 29, 2020 @ 09:00 UTC

Wind
  • 340° at 11 KTS
Conditions
No significant weather
Cloud Levels
  • Scattered at 2,000' AGL

May-29@
09:00 UTC

May-29 @ 09:00 UTC

May-29@
16:00 UTC

May-29 @ 16:00 UTC

TEMPO 2909/2916 36015G26KT

Expired

Wind
  • 360° at 15 KTS
  • {Gusting to 26 KTS
Cloud Levels